Skip Navigation Links
NOAA logo - Click to go to the NOAA homepage
NOAA's National Weather Service
Alaska Aviation Weather Unit
  NWS logo - Click to go to the NWS homepage
Left Navbar Graphic     21 AKDT = 05 GMT

   
NOAA is celebrating 200 years of science, service, and stewardship. Visit the NOAA 200th celebration Web site to learn more.
USA.gov is the U.S. Government's official Web portal to all Federal, state and local government Web resources and services.
Facebook
NWS on Facebook

AAWU Home :: Display TAF Add Bookmark
METAR PAFM 262356Z AUTO 03017G20KT 10SM CLR M02/M12 A2971 RMK AO2 SLP074
     T10221117 11017 21061 58001 FZRANO=

METAR PAFM 270056Z AUTO 02016G21KT 10SM CLR M02/M11 A2970 RMK AO2 SLP073
     T10171106 FZRANO=

METAR PAFM 270156Z AUTO 03014KT 10SM CLR M01/M11 A2970 RMK AO2
 SLP073 T10111106 FZRANO=

METAR PAFM 270256Z AUTO 03015KT 10SM CLR M02/M11 A2971 RMK AO2 SLP075
     T10171106 53001 FZRANO=

METAR PAFM 270356Z AUTO 03016KT 10SM CLR M02/M11 A2971 RMK AO2 SLP074
     T10171111 FZRANO=

METAR PAFM 270456Z AUTO 02014KT 10SM BKN055 M03/M11 A2971 RMK AO2 SLP076
     T10281111 FZRANO=


NOAA's National Weather Service
Alaska Aviation Weather Unit
6930 Sand Lake Road
Anchorage, AK 99502-1845
Disclaimer
Credits
Glossary
Privacy Policy
About Us
Career Opportunities
Contact AAWU Internet Services Site last modified: April, 17th 2012